Suttons Bay, MI (49682)

7:50 PM EDT on June 26, 2017 (GMT -0400)
Suttons Bay | | Change Station

Elev 660 ft 44.95 °N, 85.62 °W | Updated 11 seconds ago

Overcast
Overcast
54.4 °F
Feels Like 54.4 °F
N
2.0
Wind Variable Wind from SW

Today
High -- | Low -- °F
--% Chance of Precip.
Yesterday
High -- | Low -- °F
Precip. -- in
Pressure 29.95 in
Visibility 5.0 miles
Clouds Scattered Clouds 1800 ft
Mostly Cloudy 2700 ft
Overcast 5000 ft
Dew Point 51 °F
Humidity 91%
Rainfall 1.48 in
Snow Depth Not available.
5:57 AM 9:33 PM
Waxing Crescent, 12% visible
SPECI KTVC 262335Z 29007KT 5SM -RA BR SCT018 BKN027 OVC050 13/11 A2995 RMK AO2 P0005 T01330111
Pressure 29.95 in
Visibility 5.0 miles
Clouds Scattered Clouds 1800 ft
Mostly Cloudy 2700 ft
Overcast 5000 ft
Dew Point 51 °F
Humidity 91%
Rainfall 1.48 in
Snow Depth Not available.
5:57 AM 9:33 PM
Waxing Crescent, 12% visible
SPECI KTVC 262335Z 29007KT 5SM -RA BR SCT018 BKN027 OVC050 13/11 A2995 RMK AO2 P0005 T01330111

Get Severe Weather Alerts

Thanks for signing up!

Be on the lookout for a verification email in your inbox.

You'll start receiving the daily forecast at 6 AM.

×

10-Day Weather Forecast

Almanac

Astronomy

Jun. 26, 2017 Rise Set
Actual Time
Civil Twilight
Nautical Twilight
Astronomical Twilight
Moon
Length of Visible Light
Length of Day
Tomorrow will be .
, % of the Moon is Illuminated

Today's Extremes

State Highs State Lows

Community

WunderPhotos

Category 6

Welcome to Category 6. This is the collective home for Weather Underground's featured writeups by Dr. Jeff Masters (right), Bob Henson (left), Chris Burt, and other regular contributors.

Nearby

Air Quality

  Air Quality AQ Index Pollutant
Not available.

Snow Depth

Station Depth Elevation

Earthquake Activity

City Distance Mag. Time & Date
Minimum magnitude displayed is 2.5.

Coastal Water Temperatures

Place Temperature

Stations

Nearby Weather Stations

Station Location Temp. Windchill Dew Point Humidity Wind Precip. Elev Updated Type
                   

Watches & Warnings

There are currently no watches in effect.